createdAt,value
2019-06-27T00:00:52.310Z,70.73
2019-06-27T00:01:52.277Z,70.67
2019-06-27T00:02:52.258Z,70.63
2019-06-27T00:03:52.275Z,70.43
2019-06-27T00:04:52.310Z,71.12
2019-06-27T00:05:52.255Z,70.43
2019-06-27T00:06:52.222Z,70.67
2019-06-27T00:07:52.212Z,70.57
2019-06-27T00:08:52.210Z,70.43
2019-06-27T00:09:52.190Z,70.43
2019-06-27T00:10:52.251Z,70.96
2019-06-27T00:11:52.177Z,70.93
2019-06-27T00:12:52.155Z,71.16
2019-06-27T00:13:52.189Z,70.96
2019-06-27T00:14:52.167Z,70.37
2019-06-27T00:15:52.120Z,70.86
2019-06-27T00:16:52.185Z,70.27
2019-06-27T00:17:52.114Z,70.17
2019-06-27T00:18:52.124Z,70.96
2019-06-27T00:19:52.086Z,70.86
2019-06-27T00:20:52.088Z,71.06
2019-06-27T00:21:52.086Z,70.37
2019-06-27T00:22:52.150Z,71.03
2019-06-27T00:23:52.052Z,70.93
2019-06-27T00:24:52.059Z,70.86
2019-06-27T00:25:52.015Z,70.96
2019-06-27T00:26:57.092Z,71.03
2019-06-27T00:27:53.075Z,70.83
2019-06-27T00:28:51.985Z,70.27
2019-06-27T00:29:51.966Z,70.83
2019-06-27T00:30:51.966Z,70.37
2019-06-27T00:31:51.961Z,70.67
2019-06-27T00:32:51.943Z,70.86
2019-06-27T00:33:52.021Z,70.37
2019-06-27T00:34:51.950Z,70.86
2019-06-27T00:35:51.900Z,71.06
2019-06-27T00:36:51.900Z,70.47
2019-06-27T00:37:51.887Z,70.37
2019-06-27T00:38:51.870Z,70.86
2019-06-27T00:39:52.012Z,70.93
2019-06-27T00:40:51.864Z,70.37
2019-06-27T00:41:51.846Z,70.37
2019-06-27T00:42:51.871Z,70.86
2019-06-27T00:43:51.823Z,70.83
2019-06-27T00:44:51.816Z,70.63
2019-06-27T00:45:51.885Z,70.43
2019-06-27T00:46:51.800Z,70.43
2019-06-27T00:47:51.791Z,70.27
2019-06-27T00:48:51.777Z,70.76
2019-06-27T00:49:51.765Z,70.67
2019-06-27T00:50:51.754Z,70.47
2019-06-27T00:51:51.852Z,70.47
2019-06-27T00:52:51.729Z,70.86
2019-06-27T00:53:51.740Z,70.34
2019-06-27T00:54:51.699Z,70.47
2019-06-27T00:55:51.698Z,70.67
2019-06-27T00:56:51.686Z,70.63
2019-06-27T00:57:51.798Z,70.43
2019-06-27T00:58:51.687Z,70.43
2019-06-27T00:59:51.654Z,70.47
2019-06-27T01:00:51.644Z,70.67
2019-06-27T01:01:51.634Z,70.47
2019-06-27T01:02:51.623Z,70.47
2019-06-27T01:03:51.677Z,70.67
2019-06-27T01:04:51.597Z,70.67
2019-06-27T01:05:51.616Z,70.67
2019-06-27T01:06:51.585Z,70.47
2019-06-27T01:07:51.569Z,70.63
2019-06-27T01:08:51.554Z,70.67
2019-06-27T01:09:51.621Z,70.67
2019-06-27T01:10:51.534Z,70.63
2019-06-27T01:11:51.537Z,70.73
2019-06-27T01:12:51.519Z,70.76
2019-06-27T01:13:51.525Z,70.37
2019-06-27T01:14:51.495Z,70.47
2019-06-27T01:15:51.580Z,70.57
2019-06-27T01:16:51.468Z,70.67
2019-06-27T01:17:51.458Z,70.76
2019-06-27T01:18:51.449Z,70.57
2019-06-27T01:19:51.452Z,70.57
2019-06-27T01:20:51.427Z,70.67
2019-06-27T01:21:51.544Z,70.43
2019-06-27T01:22:51.418Z,70.43
2019-06-27T01:23:51.420Z,70.47
2019-06-27T01:24:51.385Z,70.43
2019-06-27T01:25:51.381Z,70.43
2019-06-27T01:26:51.366Z,70.47
2019-06-27T01:27:51.449Z,70.47
2019-06-27T01:28:51.349Z,70.63
2019-06-27T01:29:51.328Z,70.57
2019-06-27T01:30:51.317Z,70.67
2019-06-27T01:31:51.344Z,70.67
2019-06-27T01:32:51.313Z,70.47
2019-06-27T01:33:51.372Z,70.43
2019-06-27T01:34:51.283Z,70.47
2019-06-27T01:35:51.271Z,70.67
2019-06-27T01:36:51.249Z,70.67
2019-06-27T01:37:51.236Z,70.67
2019-06-27T01:38:51.243Z,70.67
2019-06-27T01:39:51.299Z,70.47
2019-06-27T01:40:51.211Z,70.67
2019-06-27T01:41:51.199Z,70.47
2019-06-27T01:42:51.196Z,70.47
2019-06-27T01:43:52.488Z,70.47
2019-06-27T01:44:51.196Z,70.96
2019-06-27T01:45:51.492Z,70.47
2019-06-27T01:46:51.145Z,70.73
2019-06-27T01:47:51.145Z,70.67
2019-06-27T01:48:51.128Z,71.06
2019-06-27T01:49:51.123Z,70.86
2019-06-27T01:50:51.111Z,70.83
2019-06-27T01:51:51.159Z,71.06
2019-06-27T01:52:51.187Z,70.93
2019-06-27T01:53:51.064Z,71.03
2019-06-27T01:54:51.065Z,70.76
2019-06-27T01:55:51.047Z,70.83
2019-06-27T01:56:51.066Z,70.83
2019-06-27T01:57:51.112Z,70.83
2019-06-27T01:58:51.047Z,70.83
2019-06-27T01:59:51.013Z,70.37
2019-06-27T02:00:50.998Z,71.06
2019-06-27T02:01:51.000Z,70.27
2019-06-27T02:02:50.973Z,70.96
2019-06-27T02:03:51.045Z,70.96
2019-06-27T02:04:50.975Z,70.37
2019-06-27T02:05:50.943Z,70.17
2019-06-27T02:06:50.933Z,70.37
2019-06-27T02:07:50.923Z,70.47
2019-06-27T02:08:50.926Z,70.67
2019-06-27T02:09:50.977Z,70.47
2019-06-27T02:10:50.912Z,70.96
2019-06-27T02:11:50.873Z,70.57
2019-06-27T02:12:50.867Z,70.73
2019-06-27T02:13:50.861Z,70.67
2019-06-27T02:14:50.837Z,70.57
2019-06-27T02:15:51.017Z,70.67
2019-06-27T02:16:50.828Z,70.57
2019-06-27T02:17:50.856Z,70.63
2019-06-27T02:18:50.802Z,70.76
2019-06-27T02:19:50.802Z,70.67
2019-06-27T02:20:50.789Z,70.67
2019-06-27T02:21:50.849Z,70.67
2019-06-27T02:22:50.762Z,70.63
2019-06-27T02:23:50.784Z,70.67
2019-06-27T02:24:50.755Z,70.86
2019-06-27T02:25:50.741Z,70.76
2019-06-27T02:26:50.720Z,70.53
2019-06-27T02:28:03.036Z,70.57
2019-06-27T02:28:51.702Z,70.57
2019-06-27T02:29:50.708Z,70.67
2019-06-27T02:30:50.683Z,70.47
2019-06-27T02:31:50.670Z,70.76
2019-06-27T02:32:50.668Z,70.67
2019-06-27T02:33:50.709Z,70.67
2019-06-27T02:34:50.635Z,70.57
2019-06-27T02:35:50.627Z,70.76
2019-06-27T02:36:50.613Z,70.67
2019-06-27T02:37:50.601Z,70.57
2019-06-27T02:38:50.596Z,70.53
2019-06-27T02:39:50.656Z,70.57
2019-06-27T02:40:50.567Z,70.57
2019-06-27T02:41:50.562Z,70.57
2019-06-27T02:42:50.566Z,70.63
2019-06-27T02:43:50.542Z,70.67
2019-06-27T02:44:50.524Z,70.67
2019-06-27T02:45:50.594Z,70.47
2019-06-27T02:46:50.535Z,70.57
2019-06-27T02:47:50.499Z,70.47
2019-06-27T02:48:50.510Z,70.63
2019-06-27T02:49:51.089Z,70.57
2019-06-27T02:50:50.510Z,70.67
2019-06-27T02:51:50.525Z,70.47
2019-06-27T02:52:50.438Z,70.57
2019-06-27T02:53:50.426Z,70.67
2019-06-27T02:54:50.418Z,70.63
2019-06-27T02:55:50.415Z,70.34
2019-06-27T02:56:50.393Z,70.57
2019-06-27T02:57:50.467Z,70.47
2019-06-27T02:58:50.382Z,70.57
2019-06-27T02:59:50.367Z,70.47
2019-06-27T03:00:50.380Z,70.53
2019-06-27T03:01:50.349Z,70.27
2019-06-27T03:02:50.337Z,70.37
2019-06-27T03:03:50.442Z,70.37
2019-06-27T03:04:50.331Z,70.24
2019-06-27T03:05:50.337Z,70.17
2019-06-27T03:06:50.352Z,70.27
2019-06-27T03:07:50.318Z,70.27
2019-06-27T03:08:50.263Z,70.17
2019-06-27T03:09:50.328Z,70.24
2019-06-27T03:10:50.241Z,70.07
2019-06-27T03:11:50.235Z,70.24
2019-06-27T03:12:50.224Z,70.17
2019-06-27T03:13:50.219Z,69.98
2019-06-27T03:14:50.200Z,70.17
2019-06-27T03:15:50.287Z,70.17
2019-06-27T03:16:50.213Z,70.17
2019-06-27T03:17:50.194Z,70.27
2019-06-27T03:18:50.161Z,70.34
2019-06-27T03:19:50.165Z,70.27
2019-06-27T03:20:50.161Z,70.27
2019-06-27T03:21:50.223Z,70.07
2019-06-27T03:22:50.122Z,70.07
2019-06-27T03:23:50.111Z,70.04
2019-06-27T03:24:50.105Z,70.07
2019-06-27T03:25:51.006Z,70.07
2019-06-27T03:26:50.073Z,70.17
2019-06-27T03:27:50.145Z,70.14
2019-06-27T03:28:53.667Z,70.04
2019-06-27T03:29:50.069Z,69.98
2019-06-27T03:30:50.057Z,70.07
2019-06-27T03:31:50.017Z,69.98
2019-06-27T03:32:50.023Z,70.07
2019-06-27T03:33:50.095Z,69.78
2019-06-27T03:34:49.992Z,69.98
2019-06-27T03:35:49.991Z,70.07
2019-06-27T03:36:49.987Z,69.98
2019-06-27T03:37:49.962Z,70.07
2019-06-27T03:38:49.959Z,70.04
2019-06-27T03:39:50.028Z,69.78
2019-06-27T03:40:49.934Z,69.65
2019-06-27T03:41:49.916Z,70.07
2019-06-27T03:42:49.900Z,70.17
2019-06-27T03:43:49.899Z,70.24
2019-06-27T03:44:49.892Z,69.78
2019-06-27T03:45:49.946Z,70.14
2019-06-27T03:46:49.859Z,69.65
2019-06-27T03:47:49.856Z,69.74
2019-06-27T03:48:49.842Z,69.55
2019-06-27T03:49:49.831Z,69.55
2019-06-27T03:50:49.838Z,69.55
2019-06-27T03:51:49.912Z,69.45
2019-06-27T03:52:49.793Z,69.94
2019-06-27T03:53:49.823Z,69.84
2019-06-27T03:54:49.771Z,69.84
2019-06-27T03:55:49.765Z,69.74
2019-06-27T03:56:49.750Z,69.84
2019-06-27T03:57:49.901Z,69.84
2019-06-27T03:59:06.366Z,69.84
2019-06-27T03:59:50.724Z,70.14
2019-06-27T04:00:49.709Z,69.84
2019-06-27T04:01:49.698Z,69.94
2019-06-27T04:02:49.689Z,69.94
2019-06-27T04:03:49.750Z,70.04
2019-06-27T04:04:49.667Z,70.14
2019-06-27T04:05:49.666Z,70.04
2019-06-27T04:06:49.642Z,70.14
2019-06-27T04:07:49.656Z,70.04
2019-06-27T04:08:49.627Z,70.04
2019-06-27T04:09:49.705Z,70.04
2019-06-27T04:10:49.619Z,69.65
2019-06-27T04:11:49.594Z,69.94
2019-06-27T04:12:49.579Z,69.74
2019-06-27T04:13:49.586Z,70.04
2019-06-27T04:14:49.557Z,69.74
2019-06-27T04:15:49.623Z,69.65
2019-06-27T04:16:49.828Z,69.74
2019-06-27T04:17:49.533Z,69.65
2019-06-27T04:18:49.510Z,69.65
2019-06-27T04:19:49.508Z,70.14
2019-06-27T04:20:49.498Z,70.04
2019-06-27T04:21:49.552Z,69.65
2019-06-27T04:22:49.489Z,69.94
2019-06-27T04:23:49.467Z,70.04
2019-06-27T04:24:49.452Z,69.74
2019-06-27T04:25:49.449Z,69.55
2019-06-27T04:26:49.525Z,69.94
2019-06-27T04:27:49.494Z,69.84
2019-06-27T04:28:49.412Z,69.94
2019-06-27T04:29:49.401Z,69.65
2019-06-27T04:30:49.391Z,69.74
2019-06-27T04:31:49.376Z,69.74
2019-06-27T04:32:49.360Z,69.65
2019-06-27T04:33:49.430Z,69.55
2019-06-27T04:34:49.341Z,69.94
2019-06-27T04:35:49.335Z,69.74
2019-06-27T04:36:49.323Z,69.55
2019-06-27T04:37:49.313Z,69.65
2019-06-27T04:38:49.298Z,69.55
2019-06-27T04:39:49.354Z,69.45
2019-06-27T04:40:49.293Z,69.65
2019-06-27T04:41:49.273Z,69.65
2019-06-27T04:42:49.281Z,69.74
2019-06-27T04:43:49.255Z,69.74
2019-06-27T04:44:49.240Z,69.74
2019-06-27T04:45:49.307Z,69.55
2019-06-27T04:46:49.224Z,69.65
2019-06-27T04:47:49.205Z,69.65
2019-06-27T04:48:49.189Z,69.74
2019-06-27T04:49:49.176Z,69.84
2019-06-27T04:50:49.171Z,69.55
2019-06-27T04:51:49.242Z,69.74
2019-06-27T04:52:49.160Z,69.55
2019-06-27T04:53:49.138Z,69.84
2019-06-27T04:54:49.125Z,69.55
2019-06-27T04:55:49.117Z,69.55
2019-06-27T04:56:49.099Z,69.65
2019-06-27T04:57:49.176Z,69.35
2019-06-27T04:58:49.092Z,69.55
2019-06-27T04:59:54.072Z,69.55
2019-06-27T05:00:50.084Z,69.65
2019-06-27T05:01:49.064Z,69.65
2019-06-27T05:02:49.045Z,69.65
2019-06-27T05:03:49.587Z,69.65
2019-06-27T05:04:49.024Z,69.65
2019-06-27T05:05:49.008Z,69.65
2019-06-27T05:06:48.999Z,70.04
2019-06-27T05:07:48.991Z,69.74
2019-06-27T05:08:48.979Z,70.04
2019-06-27T05:09:49.059Z,69.94
2019-06-27T05:10:48.954Z,70.14
2019-06-27T05:11:48.953Z,70.04
2019-06-27T05:12:48.951Z,69.94
2019-06-27T05:13:48.928Z,69.65
2019-06-27T05:14:48.931Z,69.84
2019-06-27T05:15:48.970Z,69.94
2019-06-27T05:16:48.883Z,69.55
2019-06-27T05:17:48.878Z,69.25
2019-06-27T05:18:48.882Z,69.65
2019-06-27T05:19:48.865Z,69.65
2019-06-27T05:20:48.856Z,69.74
2019-06-27T05:21:48.907Z,69.51
2019-06-27T05:22:48.819Z,69.65
2019-06-27T05:23:48.814Z,69.65
2019-06-27T05:24:48.814Z,69.65
2019-06-27T05:25:48.792Z,69.42
2019-06-27T05:26:48.789Z,69.45
2019-06-27T05:27:48.847Z,69.81
2019-06-27T05:28:48.772Z,69.74
2019-06-27T05:29:48.747Z,69.84
2019-06-27T05:30:51.382Z,69.71
2019-06-27T05:31:48.734Z,69.81
2019-06-27T05:32:48.716Z,69.81
2019-06-27T05:33:48.783Z,69.81
2019-06-27T05:34:48.709Z,69.81
2019-06-27T05:35:48.690Z,69.65
2019-06-27T05:36:48.674Z,69.61
2019-06-27T05:37:48.670Z,69.81
2019-06-27T05:38:48.652Z,69.81
2019-06-27T05:39:48.724Z,69.81
2019-06-27T05:40:48.630Z,69.81
2019-06-27T05:41:50.578Z,69.91
2019-06-27T05:42:48.617Z,69.61
2019-06-27T05:43:48.600Z,69.51
2019-06-27T05:44:48.592Z,69.22
2019-06-27T05:45:48.649Z,69.12
2019-06-27T05:46:48.558Z,69.81
2019-06-27T05:47:48.565Z,69.51
2019-06-27T05:48:48.541Z,69.51
2019-06-27T05:49:48.541Z,69.61
2019-06-27T05:50:48.531Z,69.61
2019-06-27T05:51:48.594Z,70.10
2019-06-27T05:52:48.536Z,69.71
2019-06-27T05:53:48.502Z,70.20
2019-06-27T05:54:48.481Z,69.71
2019-06-27T05:55:48.471Z,69.81
2019-06-27T05:56:48.467Z,69.71
2019-06-27T05:57:48.513Z,69.91
2019-06-27T05:58:51.735Z,69.91
2019-06-27T05:59:48.428Z,70.01
2019-06-27T06:00:48.432Z,69.91
2019-06-27T06:01:48.413Z,69.91
2019-06-27T06:02:48.406Z,70.01
2019-06-27T06:03:48.476Z,70.01
2019-06-27T06:04:48.373Z,70.01
2019-06-27T06:05:48.371Z,70.10
2019-06-27T06:06:48.357Z,70.10
2019-06-27T06:07:48.356Z,70.10
2019-06-27T06:08:48.339Z,70.10
2019-06-27T06:09:48.398Z,69.91
2019-06-27T06:10:48.321Z,69.91
2019-06-27T06:11:48.305Z,69.81
2019-06-27T06:12:48.289Z,69.91
2019-06-27T06:13:48.279Z,70.01
2019-06-27T06:14:48.270Z,70.01
2019-06-27T06:15:48.352Z,70.01
2019-06-27T06:16:48.246Z,70.01
2019-06-27T06:17:48.240Z,69.91
2019-06-27T06:18:48.224Z,70.01
2019-06-27T06:19:48.208Z,69.91
2019-06-27T06:20:48.204Z,70.01
2019-06-27T06:21:48.257Z,69.91
2019-06-27T06:22:48.187Z,70.01
2019-06-27T06:23:48.167Z,70.10
2019-06-27T06:24:48.165Z,70.01
2019-06-27T06:25:48.148Z,69.81
2019-06-27T06:26:48.136Z,70.01
2019-06-27T06:27:48.198Z,70.01
2019-06-27T06:28:48.114Z,69.91
2019-06-27T06:29:48.107Z,69.81
2019-06-27T06:30:48.095Z,70.10
2019-06-27T06:31:49.497Z,69.81
2019-06-27T06:32:48.082Z,69.91
2019-06-27T06:33:48.136Z,69.91
2019-06-27T06:34:48.054Z,69.91
2019-06-27T06:35:48.049Z,70.01
2019-06-27T06:36:48.043Z,69.91
2019-06-27T06:37:48.141Z,70.10
2019-06-27T06:38:48.007Z,70.01
2019-06-27T06:39:48.079Z,70.10
2019-06-27T06:40:47.987Z,69.91
2019-06-27T06:41:47.993Z,69.81
2019-06-27T06:42:48.495Z,69.91
2019-06-27T06:43:47.967Z,70.20
2019-06-27T06:44:47.940Z,69.91
2019-06-27T06:45:48.011Z,69.91
2019-06-27T06:46:47.935Z,70.10
2019-06-27T06:47:47.914Z,69.91
2019-06-27T06:48:47.902Z,69.81
2019-06-27T06:49:47.895Z,70.10
2019-06-27T06:50:47.912Z,70.01
2019-06-27T06:51:47.951Z,70.01
2019-06-27T06:52:47.862Z,70.10
2019-06-27T06:53:47.851Z,70.01
2019-06-27T06:54:47.837Z,70.01
2019-06-27T06:55:47.833Z,70.10
2019-06-27T06:56:47.809Z,70.30
2019-06-27T06:57:47.886Z,70.01
2019-06-27T06:58:47.799Z,70.01
2019-06-27T06:59:47.787Z,70.01
2019-06-27T07:01:00.787Z,69.91
2019-06-27T07:01:48.780Z,70.01
2019-06-27T07:02:47.764Z,69.87
2019-06-27T07:03:47.809Z,69.97
2019-06-27T07:04:47.742Z,69.81
2019-06-27T07:05:47.731Z,69.78
2019-06-27T07:06:47.701Z,69.91
2019-06-27T07:07:47.692Z,69.87
2019-06-27T07:08:47.700Z,69.81
2019-06-27T07:09:47.771Z,69.87
2019-06-27T07:10:47.675Z,69.87
2019-06-27T07:11:47.657Z,69.97
2019-06-27T07:12:47.654Z,69.91
2019-06-27T07:13:47.635Z,70.07
2019-06-27T07:14:47.628Z,69.97
2019-06-27T07:15:47.696Z,70.01
2019-06-27T07:16:47.601Z,69.97
2019-06-27T07:17:47.605Z,69.97
2019-06-27T07:18:47.589Z,69.97
2019-06-27T07:19:47.576Z,69.97
2019-06-27T07:20:47.562Z,69.87
2019-06-27T07:21:47.629Z,69.97
2019-06-27T07:22:47.549Z,69.78
2019-06-27T07:23:47.547Z,69.78
2019-06-27T07:24:47.519Z,69.97
2019-06-27T07:25:47.509Z,69.87
2019-06-27T07:26:47.502Z,69.97
2019-06-27T07:27:47.567Z,69.87
2019-06-27T07:28:47.476Z,69.97
2019-06-27T07:29:47.471Z,69.78
2019-06-27T07:30:47.460Z,70.07
2019-06-27T07:31:47.439Z,69.97
2019-06-27T07:32:47.442Z,70.07
2019-06-27T07:33:47.514Z,70.07
2019-06-27T07:34:47.420Z,70.17
2019-06-27T07:35:47.408Z,69.78
2019-06-27T07:36:47.420Z,69.68
2019-06-27T07:37:47.380Z,69.78
2019-06-27T07:38:47.550Z,69.87
2019-06-27T07:39:47.437Z,69.87
2019-06-27T07:40:47.358Z,69.87
2019-06-27T07:41:47.339Z,69.87
2019-06-27T07:42:47.329Z,69.68
2019-06-27T07:43:47.313Z,69.87
2019-06-27T07:44:47.304Z,69.68
2019-06-27T07:45:47.359Z,69.87
2019-06-27T07:46:47.277Z,69.68
2019-06-27T07:47:47.274Z,69.58
2019-06-27T07:48:47.265Z,70.07
2019-06-27T07:49:47.251Z,70.17
2019-06-27T07:50:47.241Z,69.68
2019-06-27T07:51:47.300Z,70.07
2019-06-27T07:52:47.234Z,70.27
2019-06-27T07:53:47.216Z,69.68
2019-06-27T07:54:47.204Z,70.07
2019-06-27T07:55:47.186Z,70.17
2019-06-27T07:56:47.177Z,69.68
2019-06-27T07:57:47.245Z,69.48
2019-06-27T07:58:47.163Z,69.58
2019-06-27T07:59:47.140Z,69.58
2019-06-27T08:00:47.142Z,69.68
2019-06-27T08:01:47.115Z,70.20
2019-06-27T08:02:47.121Z,69.87
2019-06-27T08:03:47.177Z,69.91
2019-06-27T08:04:47.096Z,70.10
2019-06-27T08:05:47.091Z,69.91
2019-06-27T08:06:47.064Z,69.91
2019-06-27T08:07:47.051Z,70.01
2019-06-27T08:08:47.055Z,70.14
2019-06-27T08:09:47.104Z,70.04
2019-06-27T08:10:47.026Z,70.34
2019-06-27T08:11:47.018Z,70.14
2019-06-27T08:12:47.008Z,70.24
2019-06-27T08:13:46.994Z,70.27
2019-06-27T08:14:46.991Z,70.37
2019-06-27T08:15:47.045Z,70.27
2019-06-27T08:16:46.965Z,70.04
2019-06-27T08:17:46.959Z,70.07
2019-06-27T08:18:46.956Z,70.07
2019-06-27T08:19:46.937Z,70.17
2019-06-27T08:20:46.930Z,69.98
2019-06-27T08:21:46.992Z,70.11
2019-06-27T08:22:46.894Z,70.01
2019-06-27T08:23:46.879Z,69.78
2019-06-27T08:24:46.875Z,70.07
2019-06-27T08:25:46.873Z,70.01
2019-06-27T08:26:46.859Z,70.01
2019-06-27T08:27:46.926Z,70.01
2019-06-27T08:28:46.839Z,70.01
2019-06-27T08:29:46.836Z,69.81
2019-06-27T08:30:46.817Z,69.81
2019-06-27T08:31:51.543Z,69.71
2019-06-27T08:32:47.865Z,69.71
2019-06-27T08:33:46.774Z,69.81
2019-06-27T08:34:46.784Z,69.26
2019-06-27T08:35:46.759Z,69.95
2019-06-27T08:36:46.748Z,69.95
2019-06-27T08:37:46.866Z,69.95
2019-06-27T08:38:46.797Z,70.24
2019-06-27T08:39:46.757Z,69.74
2019-06-27T08:40:46.699Z,69.74
2019-06-27T08:41:46.691Z,69.95
2019-06-27T08:42:46.678Z,69.65
2019-06-27T08:43:46.666Z,69.65
2019-06-27T08:44:46.725Z,69.74
2019-06-27T08:45:46.651Z,69.95
2019-06-27T08:46:46.649Z,69.65
2019-06-27T08:47:46.638Z,69.29
2019-06-27T08:48:46.611Z,69.06
2019-06-27T08:49:46.609Z,69.45
2019-06-27T08:50:46.674Z,69.19
2019-06-27T08:51:46.589Z,69.68
2019-06-27T08:52:46.588Z,69.19
2019-06-27T08:53:46.580Z,69.29
2019-06-27T08:54:46.562Z,69.38
2019-06-27T08:55:46.539Z,69.29
2019-06-27T08:56:46.601Z,69.29
2019-06-27T08:57:46.530Z,69.09
2019-06-27T08:58:46.540Z,68.99
2019-06-27T08:59:46.501Z,69.29
2019-06-27T09:00:46.548Z,68.99
2019-06-27T09:01:46.480Z,69.19
2019-06-27T09:02:46.537Z,68.70
2019-06-27T09:03:46.459Z,68.70
2019-06-27T09:04:46.457Z,68.79
2019-06-27T09:05:46.439Z,68.50
2019-06-27T09:06:46.427Z,68.46
2019-06-27T09:07:46.417Z,68.46
2019-06-27T09:08:46.479Z,68.17
2019-06-27T09:09:46.392Z,68.17
2019-06-27T09:10:46.385Z,67.97
2019-06-27T09:11:46.365Z,67.97
2019-06-27T09:12:46.366Z,68.07
2019-06-27T09:13:46.352Z,68.24
2019-06-27T09:14:46.427Z,68.04
2019-06-27T09:15:46.328Z,68.04
2019-06-27T09:16:46.875Z,68.13
2019-06-27T09:17:46.307Z,68.04
2019-06-27T09:18:46.296Z,67.84
2019-06-27T09:19:46.289Z,67.94
2019-06-27T09:20:46.372Z,67.84
2019-06-27T09:21:46.262Z,67.84
2019-06-27T09:22:46.245Z,67.84
2019-06-27T09:23:46.244Z,67.81
2019-06-27T09:24:46.237Z,67.55
2019-06-27T09:25:46.225Z,67.81
2019-06-27T09:26:46.288Z,67.81
2019-06-27T09:27:46.203Z,67.61
2019-06-27T09:28:46.192Z,67.61
2019-06-27T09:29:46.181Z,67.71
2019-06-27T09:30:46.169Z,67.51
2019-06-27T09:31:46.152Z,67.71
2019-06-27T09:32:46.247Z,67.61
2019-06-27T09:33:46.130Z,67.61
2019-06-27T09:34:46.130Z,67.41
2019-06-27T09:35:46.107Z,67.29
2019-06-27T09:36:46.108Z,67.58
2019-06-27T09:37:46.093Z,67.61
2019-06-27T09:38:46.176Z,67.61
2019-06-27T09:39:46.080Z,67.41
2019-06-27T09:40:46.060Z,67.38
2019-06-27T09:41:46.048Z,67.68
2019-06-27T09:42:46.038Z,67.38
2019-06-27T09:43:46.031Z,67.38
2019-06-27T09:44:46.083Z,67.48
2019-06-27T09:45:46.008Z,67.38
2019-06-27T09:46:46.009Z,67.48
2019-06-27T09:47:45.981Z,67.48
2019-06-27T09:48:45.976Z,67.58
2019-06-27T09:49:45.986Z,67.68
2019-06-27T09:50:46.022Z,67.48
2019-06-27T09:51:45.945Z,67.48
2019-06-27T09:52:45.940Z,67.58
2019-06-27T09:53:45.920Z,67.48
2019-06-27T09:54:45.911Z,67.48
2019-06-27T09:55:47.468Z,67.58
2019-06-27T09:56:45.981Z,67.65
2019-06-27T09:57:45.889Z,67.68
2019-06-27T09:58:45.866Z,67.65
2019-06-27T09:59:45.864Z,67.68
2019-06-27T10:00:45.849Z,67.58
2019-06-27T10:01:45.840Z,67.68
2019-06-27T10:02:45.899Z,67.38
2019-06-27T10:03:45.815Z,67.48
2019-06-27T10:04:45.802Z,67.48
2019-06-27T10:05:45.797Z,67.48
2019-06-27T10:06:45.783Z,67.48
2019-06-27T10:07:45.767Z,67.51
2019-06-27T10:08:45.839Z,67.61
2019-06-27T10:09:45.746Z,67.51
2019-06-27T10:10:45.748Z,67.51
2019-06-27T10:11:45.728Z,67.55
2019-06-27T10:12:45.724Z,67.41
2019-06-27T10:13:45.709Z,67.55
2019-06-27T10:14:45.777Z,67.65
2019-06-27T10:15:45.686Z,67.74
2019-06-27T10:16:45.685Z,67.74
2019-06-27T10:17:45.666Z,68.24
2019-06-27T10:18:45.653Z,67.74
2019-06-27T10:19:45.649Z,67.84
2019-06-27T10:20:45.731Z,67.84
2019-06-27T10:21:45.622Z,67.84
2019-06-27T10:22:45.614Z,67.68
2019-06-27T10:23:45.595Z,67.77
2019-06-27T10:24:45.590Z,67.68
2019-06-27T10:25:45.579Z,67.58
2019-06-27T10:26:45.641Z,67.58
2019-06-27T10:27:45.565Z,67.48
2019-06-27T10:28:45.543Z,67.58
2019-06-27T10:29:45.534Z,67.77
2019-06-27T10:30:49.053Z,67.77
2019-06-27T10:31:45.514Z,67.68
2019-06-27T10:32:58.425Z,67.38
2019-06-27T10:33:46.501Z,67.68
2019-06-27T10:34:45.481Z,67.48
2019-06-27T10:35:45.549Z,67.87
2019-06-27T10:36:45.465Z,67.74
2019-06-27T10:37:45.460Z,67.68
2019-06-27T10:38:45.521Z,67.05
2019-06-27T10:39:45.435Z,66.85
2019-06-27T10:40:45.426Z,66.96
2019-06-27T10:41:45.408Z,66.75
2019-06-27T10:42:45.403Z,66.96
2019-06-27T10:43:45.378Z,66.79
2019-06-27T10:44:45.456Z,66.99
2019-06-27T10:45:45.364Z,66.99
2019-06-27T10:46:45.361Z,66.99
2019-06-27T10:47:45.353Z,66.79
2019-06-27T10:48:45.334Z,66.89
2019-06-27T10:49:45.354Z,66.99
2019-06-27T10:50:46.593Z,66.79
2019-06-27T10:51:45.310Z,66.79
2019-06-27T10:52:45.306Z,66.89
2019-06-27T10:53:45.275Z,66.69
2019-06-27T10:54:45.271Z,66.69
2019-06-27T10:55:45.258Z,66.69
2019-06-27T10:56:45.324Z,66.89
2019-06-27T10:57:45.233Z,66.99
2019-06-27T10:58:45.224Z,66.89
2019-06-27T10:59:45.223Z,66.79
2019-06-27T11:00:45.354Z,66.79
2019-06-27T11:01:45.195Z,66.82
2019-06-27T11:02:45.256Z,66.59
2019-06-27T11:03:45.178Z,66.82
2019-06-27T11:04:45.159Z,66.89
2019-06-27T11:05:45.152Z,66.82
2019-06-27T11:06:45.171Z,66.92
2019-06-27T11:07:45.132Z,66.72
2019-06-27T11:08:45.184Z,66.82
2019-06-27T11:09:45.118Z,66.72
2019-06-27T11:10:45.101Z,66.82
2019-06-27T11:11:45.090Z,66.92
2019-06-27T11:12:45.318Z,66.82
2019-06-27T11:13:58.241Z,66.82
2019-06-27T11:14:58.741Z,66.92
2019-06-27T11:15:49.172Z,66.82
2019-06-27T11:16:45.031Z,66.52
2019-06-27T11:17:45.031Z,66.72
2019-06-27T11:18:45.004Z,66.82
2019-06-27T11:19:52.381Z,66.33
2019-06-27T11:20:46.063Z,66.13
2019-06-27T11:21:44.975Z,66.59
2019-06-27T11:22:44.973Z,66.13
2019-06-27T11:23:44.975Z,66.09
2019-06-27T11:24:44.942Z,66.39
2019-06-27T11:25:44.938Z,66.39
2019-06-27T11:26:44.996Z,66.00
2019-06-27T11:27:44.911Z,66.06
2019-06-27T11:28:44.902Z,65.77
2019-06-27T11:29:44.911Z,65.77
2019-06-27T11:30:44.886Z,65.87
2019-06-27T11:31:44.878Z,65.77
2019-06-27T11:32:44.937Z,65.57
2019-06-27T11:33:44.854Z,65.57
2019-06-27T11:34:44.840Z,65.64
2019-06-27T11:35:44.834Z,65.54
2019-06-27T11:36:46.647Z,65.64
2019-06-27T11:37:44.804Z,65.54
2019-06-27T11:38:44.856Z,65.64
2019-06-27T11:39:44.794Z,65.64
2019-06-27T11:40:44.771Z,65.54
2019-06-27T11:41:44.765Z,65.44
2019-06-27T11:42:44.743Z,65.54
2019-06-27T11:43:44.741Z,65.41
2019-06-27T11:44:44.804Z,65.41
2019-06-27T11:45:44.720Z,65.31
2019-06-27T11:46:44.759Z,65.51
2019-06-27T11:47:44.780Z,65.51
2019-06-27T11:48:44.693Z,65.51
2019-06-27T11:49:44.683Z,65.31
2019-06-27T11:50:44.762Z,65.48
2019-06-27T11:51:44.656Z,65.48
2019-06-27T11:52:47.059Z,65.28
2019-06-27T11:53:44.629Z,65.38
2019-06-27T11:54:44.621Z,65.48
2019-06-27T11:55:44.606Z,65.28
2019-06-27T11:56:44.675Z,65.58
2019-06-27T11:57:44.584Z,65.48
2019-06-27T11:58:44.585Z,65.48
2019-06-27T11:59:44.566Z,65.48
2019-06-27T12:00:44.556Z,65.48
2019-06-27T12:01:44.550Z,65.48
2019-06-27T12:02:44.604Z,65.58
2019-06-27T12:03:49.584Z,65.67
2019-06-27T12:04:45.524Z,65.67
2019-06-27T12:05:44.526Z,65.64
2019-06-27T12:06:44.486Z,65.64
2019-06-27T12:07:44.485Z,65.55
2019-06-27T12:08:44.554Z,65.84
2019-06-27T12:09:44.467Z,65.94
2019-06-27T12:10:44.458Z,65.84
2019-06-27T12:11:44.440Z,65.84
2019-06-27T12:12:44.439Z,65.84
2019-06-27T12:13:44.431Z,65.74
2019-06-27T12:14:44.496Z,65.94
2019-06-27T12:15:44.405Z,66.03
2019-06-27T12:16:44.400Z,65.94
2019-06-27T12:17:44.370Z,65.84
2019-06-27T12:18:44.370Z,65.71
2019-06-27T12:19:44.360Z,65.84
2019-06-27T12:20:44.416Z,65.81
2019-06-27T12:21:44.331Z,65.81
2019-06-27T12:22:44.326Z,65.91
2019-06-27T12:23:44.318Z,66.20
2019-06-27T12:24:44.299Z,65.61
2019-06-27T12:25:44.294Z,65.81
2019-06-27T12:26:44.348Z,65.91
2019-06-27T12:27:44.273Z,66.10
2019-06-27T12:28:44.265Z,66.10
2019-06-27T12:29:44.245Z,66.20
2019-06-27T12:30:44.239Z,65.91
2019-06-27T12:31:44.228Z,66.00
2019-06-27T12:32:51.951Z,65.91
2019-06-27T12:33:45.209Z,65.81
2019-06-27T12:34:44.193Z,65.91
2019-06-27T12:35:44.186Z,65.78
2019-06-27T12:36:44.170Z,65.81
2019-06-27T12:37:44.171Z,66.07
2019-06-27T12:38:44.233Z,65.97
2019-06-27T12:39:44.134Z,66.20
2019-06-27T12:40:44.142Z,65.88
2019-06-27T12:41:44.143Z,66.00
2019-06-27T12:42:44.111Z,66.07
2019-06-27T12:43:44.105Z,66.20
2019-06-27T12:44:44.161Z,65.97
2019-06-27T12:45:44.078Z,66.56
2019-06-27T12:46:44.065Z,66.40
2019-06-27T12:47:44.056Z,66.40
2019-06-27T12:48:44.058Z,66.89
2019-06-27T12:50:00.659Z,66.60
2019-06-27T12:50:45.096Z,66.82
2019-06-27T12:51:44.017Z,67.22
2019-06-27T12:52:44.011Z,67.02